Tiempo atmosférico en la estación meteorológica de Manresa, Barcelona (291 m.)



Fecha
DESCASC
Temp. máxima en grados centígrados (hora)
DESCASC
Temp. mínima en grados centígrados (hora)
DESCASC
Temp. media en grados centígrados
DESCASC
Racha de viento máxima en m/sg (hora)
DESCASC
Velocidad máxima media en intervalos de 10 minutos(hora)
DESCASC
Precipitaciones diarias en mm
DESCASC
Precipitaciones de 00:00 a 06:00 en mm
DESCASC
Precipitaciones de 06:00 a 12:00 en mm
DESCASC
Precipitaciones de 12:00 a 18:00 en mm
DESCASC
Precipitaciones de 18:00 a 24:00 en mm
DESCASC
23-06-2019 34.5 (16:30) 15.4 (06:50) 24.9 8.89 (19:30) 4.72 (17:10) 0 0 0 0 0
22-06-2019 32.5 (17:00) 14.8 (06:50) 23.7 9.17 (18:10) 4.44 (19:00) 0 0 0 0 0
21-06-2019 27.7 (15:50) 16.4 (06:40) 22.1 7.22 (20:10) 4.44 (19:10) 5.4 0 5 0.4 0
20-06-2019 30.5 (13:50) 16.6 (00:00) 23.6 11.11 (16:50) 5.83 (15:40) 0 0 0 0 0
19-06-2019 33 (14:40) 12.3 (00:00) 22.7 10 (19:10) 5.56 (17:30) 0 0 0 0 0
18-06-2019 30.2 (16:20) 13.7 (00:00) 22 9.44 (18:10) 5.56 (16:40) 0 0 0 0 0
17-06-2019 31.7 (15:30) 12.4 (00:00) 22.1 10 (18:20) 5.28 (17:00) 0 0 0 0 0
16-06-2019 28.5 (16:10) 12.8 (00:00) 20.7 9.17 (19:00) 4.72 (16:50) 0 0 0 0 0
15-06-2019 29 (16:10) 13.6 (00:00) 21.3 9.72 (19:50) 5 (19:40) 0 0 0 0 0
14-06-2019 28.6 (18:50) 13 (00:00) 20.8 12.22 (16:10) 6.67 (16:10) 0 0 0 0 0
13-06-2019 26.8 (15:20) 7.9 (00:00) 17.3 9.17 (16:10) 5.28 (16:10) 0 0 0 0 0
12-06-2019 24.1 (17:10) 8.8 (00:00) 16.5 8.61 (19:30) 5 (20:10) 0 0 0 0 0
11-06-2019 19 (00:00) 11.3 (00:00) 15.2 6.94 (00:30) 3.89 (00:30) 11 0.2 2.4 7.8 0.6
10-06-2019 28 (17:50) 13.2 (00:00) 20.6 9.17 (15:40) 4.72 (18:20) 0 0 0 0 0
09-06-2019 -- (--) -- (--) -- -- (--) -- (--) -- -- -- -- --
08-06-2019 -- (--) -- (--) -- -- (--) -- (--) -- 0 -- -- --
07-06-2019 26.2 (17:40) 12.9 (00:00) 19.6 11.94 (14:40) 6.94 (18:10) 0 0 0 0 0
06-06-2019 24 (16:00) 8.9 (00:00) 16.4 10 (16:20) 5.56 (15:40) 0 0 0 0 0
05-06-2019 25 (13:00) 10.9 (00:00) 17.9 10.56 (15:00) 5.83 (15:00) 0 0 0 0 0
04-06-2019 28.9 (15:40) 11.7 (00:00) 20.3 9.44 (16:50) 4.44 (17:40) 0 0 0 0 0
03-06-2019 29.8 (16:10) 11.3 (00:00) 20.5 8.61 (14:00) 4.44 (14:40) 0 0 0 0 0
02-06-2019 29.1 (15:10) 11.8 (00:00) 20.5 10.28 (16:50) 4.72 (17:00) 0 0 0 0 0
01-06-2019 29.9 (15:10) 11.7 (00:00) 20.8 9.17 (19:40) 4.72 (17:40) 0 0 0 0 0
31-05-2019 27.5 (17:10) 10 (00:00) 18.8 8.33 (16:00) 3.89 (16:00) 0 0 0 0 0
30-05-2019 25.9 (15:40) 9 (00:00) 17.4 8.89 (19:30) 5.28 (16:10) 0 0 0 0 0
29-05-2019 25.1 (17:30) 10.6 (00:00) 17.9 10 (17:10) 5.28 (19:20) 0 0 0 0 0
28-05-2019 23.8 (15:40) 13.2 (00:00) 18.5 10 (17:20) 5.28 (16:50) 0 0 0 0 0

Gráficas

Temp. máximas Temp. mínimas Temp. medias Precipitaciones Rachas de viento máximas Velocidades máximas media en intervalos de 10 minutos

Datos horarios

Fecha y hora oficial Temperatura (ºC) Velocidad del viento (km/h) Dirección del viento Racha (km/h) Dirección de racha Precipitación (mm) Presión (hPa) Tendencia (hPa) Humedad (%)
2019-06-26 23:00:00 26.9 3 Sudoeste 13 Sur 0 987.6 1.5 38
2019-06-26 22:00:00 28.6 8 Sur 15 Sur 0 986.9 1.2 33
2019-06-26 21:00:00 31.8 6 Sur 21 Sudoeste 0 986.6 0.8 23
2019-06-26 20:00:00 33.5 12 Sur 25 Sur 0 986.1 0 20
2019-06-26 19:00:00 34.7 13 Sur 32 Sudoeste 0 985.7 -0.5 18
2019-06-26 18:00:00 35 16 Sur 32 Sur 0 985.8 -0.5 17
2019-06-26 17:00:00 35.5 15 Sur 31 Sudoeste 0 986.1 -0.3 19
2019-06-26 16:00:00 35.2 17 Sur 37 Sudoeste 0 986.2 -0.4 22
2019-06-26 15:00:00 35.2 18 Sur 35 Sudoeste 0 986.3 -0.4 21
2019-06-26 14:00:00 35.6 18 Sur 30 Sudoeste 0 986.4 -0.4 18
2019-06-26 13:00:00 35.9 12 Sur 23 Sudeste 0 986.6 -0.4 17
2019-06-26 12:00:00 34.1 8 Sur 15 Sudoeste 0 986.7 -0.1 21
2019-06-26 11:00:00 31.2 5 Sudoeste 8 Sudoeste 0 986.8 0.3 27
2019-06-26 10:00:00 26.9 3 Sudoeste 7 Sudoeste 0 987 0.7 36
2019-06-26 09:00:00 23.1 4 Sudoeste 6 Sudoeste 0 986.8 0.4 46
2019-06-26 08:00:00 19.7 3 Noroeste 12 Nordeste 0 986.5 0.2 61
2019-06-26 07:00:00 17.4 3 Noroeste 10 Norte 0 986.3 0.2 72
2019-06-26 06:00:00 18 4 Nordeste 10 Norte 0 986.4 0.2 65
2019-06-26 05:00:00 18.2 0 Calma 4 Sur 0 986.3 0 79
2019-06-26 04:00:00 18.7 3 Oeste 6 Oeste 0 986.1 0 78
2019-06-26 03:00:00 19.8 0 Calma 7 Oeste 0 986.2 0.2 78
2019-06-26 02:00:00 20.8 3 Oeste 6 Oeste 0 986.3 1 75
2019-06-26 01:00:00 22.2 3 Nordeste 7 Nordeste 0 986.1 1.7 70
2019-06-26 00:00:00 23.4 0 Calma 10 Sudeste 0 986 2.2 67
2019-06-25 23:00:00 24.4 5 Sur 13 Sur 0 985.3 2.1 63
2019-06-25 22:00:00 25.2 6 Sur 21 Sur 0 984.4 1.8 60
2019-06-25 21:00:00 26.6 11 Sur 29 Sur 0 983.8 1.2 55
2019-06-25 20:00:00 28.2 18 Sur 30 Sur 0 983.2 0.5 51
2019-06-25 19:00:00 29.1 19 Sur 32 Sur 0 982.6 -0.3 48
2019-06-25 18:00:00 30.7 15 Sur 31 Sur 0 982.6 -0.4 42
2019-06-25 17:00:00 31.6 18 Sur 34 Sur 0 982.7 -0.6 36
2019-06-25 16:00:00 32.6 15 Sur 29 Sur 0 982.9 -1 32
2019-06-25 15:00:00 33.8 8 Sudeste 22 Sudeste 0 983 -0.9 26
2019-06-25 14:00:00 32.6 9 Sudeste 24 Sur 0 983.3 -0.9 28
2019-06-25 13:00:00 30.8 8 Sudeste 29 Sudeste 0 983.9 -0.2 32
2019-06-25 12:00:00 29.3 12 Este 30 Nordeste 0 983.9 0.4 37
2019-06-25 11:00:00 26.9 5 Norte 13 Sur 0 984.2 1.4 45
2019-06-25 10:00:00 24.3 5 Sur 10 Sudoeste 0 984.1 1.7 53
2019-06-25 09:00:00 20.2 3 Oeste 7 Oeste 0 983.5 1.4 60
2019-06-25 08:00:00 17.5 3 Oeste 5 Sudoeste 0 982.8 0.4 68
2019-06-25 07:00:00 16.1 2 Noroeste 5 Oeste 0 982.4 -0.4 71
2019-06-25 06:00:00 16.5 3 Oeste 5 Norte 0 982.1 -0.9 68
2019-06-25 05:00:00 17.3 2 Norte 6 Norte 0 982.4 -0.6 66
2019-06-25 04:00:00 17.9 0 Calma 5 Oeste 0 982.8 -0.2 65
2019-06-25 03:00:00 18.9 3 Oeste 4 Oeste 0 983 0.3 61
2019-06-25 02:00:00 20.9 3 Sur 6 Sudeste 0 983 1 61
2019-06-25 01:00:00 21.9 5 Sur 15 Sudoeste 0 983 1.8 56
2019-06-25 00:00:00 22.8 8 Sur 18 Sur 0 982.7 2 49
2019-06-24 23:00:00 23.8 6 Sur 18 Sur 0 982 1.7 46
2019-06-24 22:00:00 25.4 6 Sur 18 Sudoeste 0 981.2 1.1 42
2019-06-24 21:00:00 27.9 7 Sur 16 Sur 0 980.7 0.3 28
2019-06-24 20:00:00 29.6 8 Sur 18 Sur 0 980.3 -0.3 20
2019-06-24 19:00:00 32.6 9 Sudeste 22 Este 0 980.1 -0.9 16
2019-06-24 18:00:00 32.4 -- -- -- -- 0 980.4 -1 18
2019-06-24 17:00:00 33.3 10 Este 27 Nordeste 0 980.6 -1.4 20
2019-06-24 16:00:00 33.3 12 Este 30 Nordeste 0 981 -1.3 20
2019-06-24 15:00:00 32.9 8 Sudeste 31 Sur 0 981.4 -1.2 17
2019-06-24 14:00:00 32.3 10 Sur 27 Sudeste 0 982 -0.5 19
2019-06-24 13:00:00 30.6 10 Sur 22 Sur 0 982.3 -0.4 29
2019-06-24 12:00:00 28.6 12 Sur 21 Sudoeste 0 982.6 -0.1 31
2019-06-24 11:00:00 25.8 4 Sudoeste 9 Sur 0 982.5 0 41
2019-06-24 10:00:00 22.5 2 Sudoeste 7 Oeste 0 982.7 0 49
2019-06-24 09:00:00 18.8 4 Oeste 7 Sudoeste 0 982.7 0 63
2019-06-24 08:00:00 17.3 2 Este 5 Oeste 0 982.5 -0.4 67
2019-06-24 07:00:00 15.5 3 Oeste 6 Oeste 0 982.7 -0.4 73
2019-06-24 06:00:00 16.1 2 Norte 8 Nordeste 0 982.7 -0.4 72
2019-06-24 05:00:00 16.7 6 Nordeste 12 Nordeste 0 982.9 0 70
2019-06-24 04:00:00 17.9 4 Nordeste 7 Nordeste 0 983.1 0.6 67
2019-06-24 03:00:00 19.1 0 Calma 5 Oeste 0 983.1 0.9 68
2019-06-24 02:00:00 19.6 3 Noroeste 8 Oeste 0 982.9 1.2 63
2019-06-24 01:00:00 21.6 6 Sudoeste 16 Sudoeste 0 982.5 1.7 57
2019-06-24 00:00:00 23.1 6 Sur 13 Sur 0 982.2 2 49
2019-06-23 23:00:00 23.9 0 Calma 11 Sur 0 981.7 2.2 43
2019-06-23 22:00:00 25.5 7 Sur 21 Sur 0 980.8 1.8 39
2019-06-23 21:00:00 27.7 9 Sur 29 Sur 0 980.2 1.1 29
2019-06-23 20:00:00 30.3 11 Sur 32 Sudeste 0 979.5 0.3 26
2019-06-23 19:00:00 31.6 14 Sur 31 Sur 0 979 -0.5 26
2019-06-23 18:00:00 32.3 13 Sur 31 Sudeste 0 979.1 -0.8 28
2019-06-23 17:00:00 33.9 15 Sur 30 Sur 0 979.2 -1.2 24
2019-06-23 16:00:00 34 10 Sur 28 Sudoeste 0 979.5 -1.2 25
2019-06-23 15:00:00 33.3 12 Sur 26 Sudoeste 0 979.9 -1.2 25
2019-06-23 14:00:00 31.7 10 Sur 25 Sur 0 980.4 -1.3 31
2019-06-23 13:00:00 30.1 7 Sur 14 Sudoeste 0 980.7 -1.3 32
2019-06-23 12:00:00 28.5 4 Sudeste 11 Sudeste 0 981.1 -1 35
2019-06-23 11:00:00 24.2 3 Sudoeste 8 Nordeste 0 981.7 0.1 50
2019-06-23 10:00:00 21.6 4 Norte 8 Nordeste 0 982 0.5 59
2019-06-23 09:00:00 19.4 4 Nordeste 8 Este 0 982.1 0.6 67
2019-06-23 08:00:00 16.8 4 Nordeste 6 Este 0 981.6 0.1 76
2019-06-23 07:00:00 15.5 0 Calma 5 Norte 0 981.5 0 82
2019-06-23 06:00:00 15.7 2 Norte 8 Norte 0 981.5 -0.5 80
2019-06-23 05:00:00 16.4 6 Nordeste 8 Norte 0 981.5 -0.6 80
2019-06-23 04:00:00 17.3 3 Nordeste 6 Nordeste 0 981.5 -0.4 76
2019-06-23 03:00:00 17.5 4 Oeste 7 Sudoeste 0 982 0.1 75
2019-06-23 02:00:00 18.5 4 Oeste 7 Sudoeste 0 982.1 0.6 72
2019-06-23 01:00:00 20.3 3 Sur 13 Sur 0 981.9 1.1 64
2019-06-23 00:00:00 20.8 7 Sur 21 Sur 0 981.9 1.6 63
2019-06-22 23:00:00 21.3 11 Sur 23 Sur 0 981.5 1.7 61
2019-06-22 22:00:00 22.9 10 Sur 21 Sur 0 980.8 1.1 55
2019-06-22 21:00:00 25.1 10 Sur 23 Sur 0 980.3 0.8 51
2019-06-22 20:00:00 27 14 Sur 27 Sudoeste 0 979.8 0 44
2019-06-22 19:00:00 29 16 Sur 33 Sudoeste 0 979.7 -0.7 34
2019-06-22 18:00:00 30.7 13 Sur 26 Sur 0 979.5 -1.4 29
2019-06-22 17:00:00 32 8 Sudoeste 27 Oeste 0 979.8 -1.8 19
2019-06-22 16:00:00 31.2 13 Oeste 27 Oeste 0 980.4 -1.6 19
2019-06-22 15:00:00 30.6 11 Noroeste 26 Noroeste 0 980.9 -1.6 20
2019-06-22 14:00:00 28.9 13 Oeste 28 Noroeste 0 981.6 -1.1 22
2019-06-22 13:00:00 28.6 11 Oeste 23 Noroeste 0 982 -1.1 24
2019-06-22 12:00:00 26.2 6 Sudoeste 14 Sur 0 982.5 -0.7 33
2019-06-22 11:00:00 23.5 7 Sudoeste 15 Sur 0 982.7 -0.4 46
2019-06-22 10:00:00 21.4 4 Nordeste 10 Nordeste 0 983.1 0.2 53
2019-06-22 09:00:00 19.4 2 Nordeste 8 Nordeste 0 983.2 0.6 65
2019-06-22 08:00:00 16.5 5 Nordeste 11 Nordeste 0 983.1 0.4 81
2019-06-22 07:00:00 14.9 7 Nordeste 12 Nordeste 0 982.9 0.1 88
2019-06-22 06:00:00 15.2 4 Norte 8 Nordeste 0 982.6 -0.4 88
2019-06-22 05:00:00 15.8 3 Nordeste 8 Nordeste 0 982.7 -0.1 87
2019-06-22 04:00:00 16.7 3 Nordeste 8 Norte 0 982.8 0.3 85
2019-06-22 03:00:00 17.5 4 Noroeste 10 Noroeste 0 983 0.4 81
2019-06-22 02:00:00 18.1 0 Calma 6 Oeste 0 982.8 0.5 80
2019-06-22 01:00:00 19.2 3 Sudoeste 12 Sur 0 982.5 1.3 75
2019-06-22 00:00:00 19.9 7 Sur 16 Sudoeste 0 982.6 1.9 72
2019-06-21 23:00:00 20.6 8 Sur 21 Sur 0 982.3 1.9 69
2019-06-21 22:00:00 21.6 9 Sur 24 Sur 0 981.2 1.1 66
2019-06-21 21:00:00 23.1 12 Sur 26 Sur 0 980.7 0.6 61
2019-06-21 20:00:00 24.9 12 Sur 25 Sur 0 980.4 0.1 54
2019-06-21 19:00:00 26 13 Sur 25 Sur 0 980.1 -0.6 51
2019-06-21 18:00:00 26.2 4 Norte 16 Noroeste 0 980.1 -1 42
2019-06-21 17:00:00 26.5 7 Nordeste 16 Norte 0 980.3 -1.2 43
2019-06-21 16:00:00 26.8 6 Norte 17 Norte 0 980.7 -1.2 43
2019-06-21 15:00:00 26.8 6 Noroeste 13 Norte 0 981.1 -0.5 49
2019-06-21 14:00:00 24.3 5 Oeste 14 Nordeste 0 981.5 -0.3 55
2019-06-21 13:00:00 22.1 4 Noroeste 13 Este 0.4 981.9 0.4 73
2019-06-21 12:00:00 18.5 4 Sudeste 11 Este 5 981.6 0.2 86
2019-06-21 11:00:00 20.1 2 Oeste 9 Oeste 0 981.8 0.5 69
2019-06-21 10:00:00 20.9 5 Norte 10 Nordeste 0 981.5 0.7 65
2019-06-21 09:00:00 18.5 5 Este 12 Este 0 981.4 0.7 75
2019-06-21 08:00:00 17.6 5 Nordeste 10 Norte 0 981.3 0.8 78
2019-06-21 07:00:00 16.4 5 Nordeste 9 Norte 0 980.8 0.4 80
2019-06-21 06:00:00 17 3 Sur 9 Sur 0 980.7 0.3 83
2019-06-21 05:00:00 17 2 Oeste 13 Sudoeste 0 980.5 0.3 84
2019-06-21 04:00:00 17.2 4 Sudoeste 13 Sudoeste 0 980.4 0.1 81
2019-06-21 03:00:00 17.9 3 Sudoeste 6 Sur 0 980.4 0 76
2019-06-21 02:00:00 18.3 4 Sudoeste 6 Sudoeste 0 980.2 -0.6 72
2019-06-21 01:00:00 19 0 Calma 5 Sudoeste 0 980.3 0.3 69
2019-06-21 00:00:00 20 2 Sudoeste 6 Nordeste 0 980.4 1 69
2019-06-20 23:00:00 20.7 2 Nordeste 8 Nordeste 0 980.8 1.4 63
2019-06-20 22:00:00 21.2 3 Oeste 25 Sudeste 0 980 1.2 64
2019-06-20 21:00:00 21.9 10 Sur 21 Sur 0 979.4 0.5 60
2019-06-20 20:00:00 22.2 12 Sur 30 Sur 0 979.4 0.7 59
2019-06-20 19:00:00 23.7 16 Sur 32 Sudoeste 0 978.8 -0.2 50
2019-06-20 18:00:00 25.2 20 Sur 35 Sur 0 978.9 -0.1 45
2019-06-20 17:00:00 26.4 19 Sur 40 Sudoeste 0 978.7 -0.6 42
2019-06-20 16:00:00 28.1 18 Sur 34 Sudoeste 0 979 -0.6 40
2019-06-20 15:00:00 30.1 15 Sur 32 Sur 0 979 -0.9 38
2019-06-20 14:00:00 30.4 11 Sudoeste 28 Sur 0 979.3 -1 34
2019-06-20 13:00:00 28.9 5 Sudoeste 16 Sudoeste 0 979.6 -1.2 39
2019-06-20 12:00:00 27.4 6 Oeste 14 Oeste 0 979.9 -0.9 45
2019-06-20 11:00:00 25.1 4 Sur 14 Oeste 0 980.3 0 54
2019-06-20 10:00:00 22.9 5 Sur 11 Sudeste 0 980.8 1 60
2019-06-20 09:00:00 20.6 4 Nordeste 9 Nordeste 0 980.8 1 63
2019-06-20 08:00:00 18.4 2 Norte 6 Oeste 0 980.3 0.7 72
2019-06-20 07:00:00 16.7 2 Sudoeste 6 Sudoeste 0 979.8 0.4 79
2019-06-20 06:00:00 17.2 0 Calma 5 Nordeste 0 979.8 0.2 77
2019-06-20 05:00:00 17.7 3 Nordeste 5 Oeste 0 979.6 0.1 76
2019-06-20 04:00:00 17.9 3 Sudoeste 5 Sudoeste 0 979.4 -0.2 76
2019-06-20 03:00:00 -- -- -- -- -- -- -- -- --
2019-06-20 02:00:00 -- -- -- -- -- -- -- -- --
2019-06-20 01:00:00 -- -- -- -- -- -- -- -- --
2019-06-20 00:00:00 -- -- -- -- -- -- -- -- --
2019-06-19 23:00:00 -- -- -- -- -- -- -- -- --
2019-06-19 22:00:00 -- -- -- -- -- -- -- -- --
2019-06-19 21:00:00 -- -- -- -- -- -- -- -- --
2019-06-19 20:00:00 -- -- -- -- -- -- -- -- --
2019-06-19 19:00:00 -- -- -- -- -- -- -- -- --
2019-06-19 18:00:00 -- -- -- -- -- -- -- -- --
2019-06-19 17:00:00 -- -- -- -- -- -- -- -- --
2019-06-19 16:00:00 -- -- -- -- -- -- -- -- --
2019-06-19 15:00:00 -- -- -- -- -- -- -- -- --
2019-06-19 14:00:00 -- -- -- -- -- -- -- -- --
2019-06-19 13:00:00 -- -- -- -- -- -- -- -- --
2019-06-19 12:00:00 -- -- -- -- -- -- -- -- --
2019-06-19 11:00:00 -- -- -- -- -- -- -- -- --
2019-06-19 10:00:00 -- -- -- -- -- -- -- -- --
2019-06-19 09:00:00 -- -- -- -- -- -- -- -- --
2019-06-19 08:00:00 -- -- -- -- -- -- -- -- --
2019-06-19 07:00:00 -- -- -- -- -- -- -- -- --
2019-06-19 06:00:00 -- -- -- -- -- -- -- -- --
2019-06-19 05:00:00 -- -- -- -- -- -- -- -- --
2019-06-19 04:00:00 -- -- -- -- -- -- -- -- --
2019-06-19 03:00:00 -- -- -- -- -- -- -- -- --
2019-06-19 02:00:00 -- -- -- -- -- -- -- -- --
2019-06-19 01:00:00 -- -- -- -- -- -- -- -- --
2019-06-19 00:00:00 -- -- -- -- -- -- -- -- --
2019-06-18 23:00:00 -- -- -- -- -- -- -- -- --
2019-06-18 22:00:00 -- -- -- -- -- -- -- -- --
2019-06-18 21:00:00 -- -- -- -- -- -- -- -- --
2019-06-18 20:00:00 -- -- -- -- -- -- -- -- --
2019-06-18 19:00:00 -- -- -- -- -- -- -- -- --
2019-06-18 18:00:00 -- -- -- -- -- -- -- -- --
2019-06-18 17:00:00 -- -- -- -- -- -- -- -- --
2019-06-18 16:00:00 -- -- -- -- -- -- -- -- --
2019-06-18 15:00:00 -- -- -- -- -- -- -- -- --
2019-06-18 14:00:00 -- -- -- -- -- -- -- -- --
2019-06-18 13:00:00 -- -- -- -- -- -- -- -- --
2019-06-18 12:00:00 -- -- -- -- -- -- -- -- --
2019-06-18 11:00:00 -- -- -- -- -- -- -- -- --
2019-06-18 10:00:00 -- -- -- -- -- -- -- -- --
2019-06-18 09:00:00 -- -- -- -- -- -- -- -- --
2019-06-18 08:00:00 -- -- -- -- -- -- -- -- --
2019-06-18 07:00:00 -- -- -- -- -- -- -- -- --
2019-06-18 06:00:00 -- -- -- -- -- -- -- -- --
2019-06-18 05:00:00 -- -- -- -- -- -- -- -- --
2019-06-18 04:00:00 -- -- -- -- -- -- -- -- --
2019-06-18 03:00:00 -- -- -- -- -- -- -- -- --
2019-06-18 02:00:00 -- -- -- -- -- -- -- -- --
2019-06-18 01:00:00 -- -- -- -- -- -- -- -- --
2019-06-18 00:00:00 -- -- -- -- -- -- -- -- --
2019-06-17 23:00:00 -- -- -- -- -- -- -- -- --
2019-06-17 22:00:00 -- -- -- -- -- -- -- -- --
2019-06-17 21:00:00 -- -- -- -- -- -- -- -- --
2019-06-17 20:00:00 -- -- -- -- -- -- -- -- --
2019-06-17 19:00:00 -- -- -- -- -- -- -- -- --
2019-06-17 18:00:00 -- -- -- -- -- -- -- -- --
2019-06-17 17:00:00 -- -- -- -- -- -- -- -- --
2019-06-17 16:00:00 -- -- -- -- -- -- -- -- --
2019-06-17 15:00:00 -- -- -- -- -- -- -- -- --
2019-06-17 14:00:00 -- -- -- -- -- -- -- -- --
2019-06-17 13:00:00 -- -- -- -- -- -- -- -- --
2019-06-17 12:00:00 -- -- -- -- -- -- -- -- --
2019-06-17 11:00:00 -- -- -- -- -- -- -- -- --
2019-06-17 10:00:00 -- -- -- -- -- -- -- -- --
2019-06-17 09:00:00 -- -- -- -- -- -- -- -- --
2019-06-17 08:00:00 13.9 2 Oeste 8 Oeste 0 984.2 0.6 80
2019-06-17 07:00:00 12.6 2 Norte 10 Nordeste 0 983.8 0 86
2019-06-17 06:00:00 13 5 Nordeste 8 Nordeste 0 983.8 -0.1 85
2019-06-17 05:00:00 13.3 2 Noroeste 6 Oeste 0 983.6 -0.5 84
2019-06-17 04:00:00 14 0 Calma 5 Oeste 0 983.8 -0.5 80
2019-06-17 03:00:00 14.9 2 Oeste 7 Norte 0 983.9 -0.6 78
2019-06-17 02:00:00 16 3 Noroeste 6 Norte 0 984.1 0 75
2019-06-17 01:00:00 17.1 0 Calma 15 Sudeste 0 984.3 1 68
2019-06-17 00:00:00 18.5 8 Sur 17 Sudeste 0 984.5 1.6 62
2019-06-16 23:00:00 19.3 5 Sur 19 Sur 0 984.1 1.3 61
2019-06-16 22:00:00 20.2 10 Sur 24 Sur 0 983.3 0.6 59
2019-06-16 21:00:00 22 14 Sur 32 Sur 0 982.9 0.3 53
2019-06-16 20:00:00 24 12 Sur 26 Sur 0 982.8 -0.1 46
2019-06-16 19:00:00 25.4 14 Sur 33 Sur 0 982.7 -0.8 42
2019-06-16 18:00:00 27.5 13 Sur 30 Sudoeste 0 982.6 -1.6 34
2019-06-16 17:00:00 28.3 13 Sur 30 Sudoeste 0 982.9 -1.9 33
2019-06-16 16:00:00 28 13 Sur 29 Sudoeste 0 983.5 -2 33
2019-06-16 15:00:00 27.8 13 Sur 25 Sur 0 984.2 -1.9 34
2019-06-16 14:00:00 27.5 10 Sur 19 Sudoeste 0 984.8 -1.8 34
2019-06-16 13:00:00 25.6 7 Sur 17 Sur 0 985.5 -1.4 40
2019-06-16 12:00:00 24.3 3 Este 12 Noroeste 0 986.1 -0.8 46
2019-06-16 11:00:00 22.1 5 Nordeste 12 Nordeste 0 986.6 -0.1 52
2019-06-16 10:00:00 19.3 6 Nordeste 11 Nordeste 0 986.9 0.6 68
2019-06-16 09:00:00 16.5 5 Nordeste 9 Nordeste 0 986.9 0.5 76
2019-06-16 08:00:00 13.8 3 Oeste 8 Norte 0 986.7 0.3 85
2019-06-16 07:00:00 12.9 4 Nordeste 8 Nordeste 0 986.3 -0.3 89
2019-06-16 06:00:00 12.9 2 Noroeste 6 Oeste 0 986.4 -0.3 89
2019-06-16 05:00:00 13.8 3 Noroeste 6 Nordeste 0 986.4 -0.5 88
2019-06-16 04:00:00 14.1 2 Sudoeste 6 Oeste 0 986.6 -0.3 87
2019-06-16 03:00:00 15 0 Calma 5 Oeste 0 986.7 0.3 86
2019-06-16 02:00:00 15.9 2 Oeste 6 Oeste 0 986.9 1.2 83
2019-06-16 01:00:00 16.9 3 Sur 13 Sur 0 986.9 2.5 79
2019-06-16 00:00:00 17.5 9 Sur 16 Sudoeste 0 986.4 3 78
2019-06-15 23:00:00 17.8 9 Sur 25 Sudeste 0 985.7 3.2 76
2019-06-15 22:00:00 18.4 10 Sur 28 Sudoeste 0 984.4 2.4 74
2019-06-15 21:00:00 20.1 15 Sur 35 Sur 0 983.4 1.8 68
2019-06-15 20:00:00 22.4 16 Sur 35 Sur 0 982.5 0.8 61
2019-06-15 19:00:00 24.4 15 Sur 34 Sudoeste 0 982 0.5 55
2019-06-15 18:00:00 26.3 13 Sur 29 Sur 0 981.6 -0.1 47
2019-06-15 17:00:00 27.9 11 Sur 29 Oeste 0 981.7 -0.3 39
2019-06-15 16:00:00 28.8 15 Oeste 30 Oeste 0 981.5 -0.6 22
2019-06-15 15:00:00 28.2 12 Oeste 24 Sudoeste 0 981.7 -0.6 22
2019-06-15 14:00:00 27.6 12 Oeste 26 Oeste 0 982 -0.4 25
2019-06-15 13:00:00 26.3 6 Noroeste 21 Oeste 0 982.1 -0.5 28
2019-06-15 12:00:00 24.7 12 Oeste 23 Oeste 0 982.3 0.1 32
2019-06-15 11:00:00 23 10 Oeste 23 Oeste 0 982.4 0.9 43
2019-06-15 10:00:00 20.6 3 Oeste 9 Oeste 0 982.6 1.4 60
2019-06-15 09:00:00 17.6 2 Este 7 Norte 0 982.2 1.6 69
2019-06-15 08:00:00 15.4 3 Nordeste 8 Nordeste 0 981.5 1.1 78
2019-06-15 07:00:00 13.9 4 Nordeste 6 Nordeste 0 981.2 1 86
2019-06-15 06:00:00 13.6 3 Noroeste 6 Oeste 0 980.6 0.6 85
2019-06-15 05:00:00 14.3 3 Sur 9 Noroeste 0 980.4 0.2 84
2019-06-15 04:00:00 14.9 4 Noroeste 9 Nordeste 0 980.2 0.1 83
2019-06-15 03:00:00 -- -- -- -- -- -- -- -- --
2019-06-15 02:00:00 -- -- -- -- -- -- -- -- --
2019-06-15 01:00:00 -- -- -- -- -- -- -- -- --
2019-06-15 00:00:00 -- -- -- -- -- -- -- -- --
2019-06-14 23:00:00 -- -- -- -- -- -- -- -- --
2019-06-14 22:00:00 -- -- -- -- -- -- -- -- --
2019-06-14 21:00:00 -- -- -- -- -- -- -- -- --
2019-06-14 20:00:00 -- -- -- -- -- -- -- -- --
2019-06-14 19:00:00 -- -- -- -- -- -- -- -- --
2019-06-14 18:00:00 -- -- -- -- -- -- -- -- --
2019-06-14 17:00:00 -- -- -- -- -- -- -- -- --
2019-06-14 16:00:00 -- -- -- -- -- -- -- -- --
2019-06-14 15:00:00 -- -- -- -- -- -- -- -- --
2019-06-14 14:00:00 -- -- -- -- -- -- -- -- --
2019-06-14 13:00:00 -- -- -- -- -- -- -- -- --
2019-06-14 12:00:00 -- -- -- -- -- -- -- -- --
2019-06-14 11:00:00 -- -- -- -- -- -- -- -- --
2019-06-14 10:00:00 -- -- -- -- -- -- -- -- --
2019-06-14 09:00:00 -- -- -- -- -- -- -- -- --
2019-06-14 08:00:00 -- -- -- -- -- -- -- -- --
2019-06-14 07:00:00 -- -- -- -- -- -- -- -- --
2019-06-14 06:00:00 -- -- -- -- -- -- -- -- --
2019-06-14 05:00:00 -- -- -- -- -- -- -- -- --
2019-06-14 04:00:00 -- -- -- -- -- -- -- -- --
2019-06-14 03:00:00 -- -- -- -- -- -- -- -- --
2019-06-14 02:00:00 -- -- -- -- -- -- -- -- --
2019-06-14 01:00:00 -- -- -- -- -- -- -- -- --
2019-06-14 00:00:00 -- -- -- -- -- -- -- -- --
2019-06-13 23:00:00 -- -- -- -- -- -- -- -- --
2019-06-13 22:00:00 -- -- -- -- -- -- -- -- --
2019-06-13 21:00:00 -- -- -- -- -- -- -- -- --
2019-06-13 20:00:00 -- -- -- -- -- -- -- -- --
2019-06-13 19:00:00 -- -- -- -- -- -- -- -- --
2019-06-13 18:00:00 -- -- -- -- -- -- -- -- --
2019-06-13 17:00:00 -- -- -- -- -- -- -- -- --
2019-06-13 16:00:00 -- -- -- -- -- -- -- -- --
2019-06-13 15:00:00 -- -- -- -- -- -- -- -- --
2019-06-13 14:00:00 -- -- -- -- -- -- -- -- --
2019-06-13 13:00:00 -- -- -- -- -- -- -- -- --
2019-06-13 12:00:00 -- -- -- -- -- -- -- -- --
2019-06-13 11:00:00 -- -- -- -- -- -- -- -- --
2019-06-13 10:00:00 -- -- -- -- -- -- -- -- --
2019-06-13 09:00:00 -- -- -- -- -- -- -- -- --
2019-06-13 08:00:00 -- -- -- -- -- -- -- -- --
2019-06-13 07:00:00 -- -- -- -- -- -- -- -- --
2019-06-13 06:00:00 -- -- -- -- -- -- -- -- --
2019-06-13 05:00:00 -- -- -- -- -- -- -- -- --
2019-06-13 04:00:00 -- -- -- -- -- -- -- -- --
2019-06-13 03:00:00 -- -- -- -- -- -- -- -- --
2019-06-13 02:00:00 -- -- -- -- -- -- -- -- --
2019-06-13 01:00:00 -- -- -- -- -- -- -- -- --
2019-06-13 00:00:00 -- -- -- -- -- -- -- -- --
2019-06-12 23:00:00 -- -- -- -- -- -- -- -- --
2019-06-12 22:00:00 -- -- -- -- -- -- -- -- --
2019-06-12 21:00:00 -- -- -- -- -- -- -- -- --
2019-06-12 20:00:00 -- -- -- -- -- -- -- -- --
2019-06-12 19:00:00 -- -- -- -- -- -- -- -- --
2019-06-12 18:00:00 -- -- -- -- -- -- -- -- --
2019-06-12 17:00:00 -- -- -- -- -- -- -- -- --
2019-06-12 16:00:00 -- -- -- -- -- -- -- -- --
2019-06-12 15:00:00 -- -- -- -- -- -- -- -- --
2019-06-12 14:00:00 -- -- -- -- -- -- -- -- --
2019-06-12 13:00:00 -- -- -- -- -- -- -- -- --
2019-06-12 12:00:00 -- -- -- -- -- -- -- -- --
2019-06-12 11:00:00 -- -- -- -- -- -- -- -- --
2019-06-12 10:00:00 -- -- -- -- -- -- -- -- --
2019-06-12 09:00:00 -- -- -- -- -- -- -- -- --
2019-06-12 08:00:00 -- -- -- -- -- -- -- -- --
2019-06-12 07:00:00 -- -- -- -- -- -- -- -- --
2019-06-12 06:00:00 -- -- -- -- -- -- -- -- --
2019-06-12 05:00:00 -- -- -- -- -- -- -- -- --
2019-06-12 04:00:00 -- -- -- -- -- -- -- -- --
2019-06-12 03:00:00 -- -- -- -- -- -- -- -- --
2019-06-12 02:00:00 -- -- -- -- -- -- -- -- --
2019-06-12 01:00:00 -- -- -- -- -- -- -- -- --
2019-06-12 00:00:00 -- -- -- -- -- -- -- -- --
2019-06-11 23:00:00 -- -- -- -- -- -- -- -- --
2019-06-11 22:00:00 -- -- -- -- -- -- -- -- --
2019-06-11 21:00:00 -- -- -- -- -- -- -- -- --
2019-06-11 20:00:00 -- -- -- -- -- -- -- -- --
2019-06-11 19:00:00 -- -- -- -- -- -- -- -- --
2019-06-11 18:00:00 -- -- -- -- -- -- -- -- --
2019-06-11 17:00:00 -- -- -- -- -- -- -- -- --
2019-06-11 16:00:00 -- -- -- -- -- -- -- -- --
2019-06-11 15:00:00 -- -- -- -- -- -- -- -- --
2019-06-11 14:00:00 -- -- -- -- -- -- -- -- --
2019-06-11 13:00:00 -- -- -- -- -- -- -- -- --
2019-06-11 12:00:00 -- -- -- -- -- -- -- -- --
2019-06-11 11:00:00 -- -- -- -- -- -- -- -- --
2019-06-11 10:00:00 -- -- -- -- -- -- -- -- --
2019-06-11 09:00:00 -- -- -- -- -- -- -- -- --
2019-06-11 08:00:00 -- -- -- -- -- -- -- -- --
2019-06-11 07:00:00 -- -- -- -- -- -- -- -- --
2019-06-11 06:00:00 -- -- -- -- -- -- -- -- --
2019-06-11 05:00:00 -- -- -- -- -- -- -- -- --
2019-06-11 04:00:00 -- -- -- -- -- -- -- -- --
2019-06-11 03:00:00 -- -- -- -- -- -- -- -- --
2019-06-11 02:00:00 -- -- -- -- -- -- -- -- --
2019-06-11 01:00:00 -- -- -- -- -- -- -- -- --
2019-06-11 00:00:00 -- -- -- -- -- -- -- -- --
2019-06-10 23:00:00 -- -- -- -- -- -- -- -- --
2019-06-10 22:00:00 -- -- -- -- -- -- -- -- --
2019-06-10 21:00:00 -- -- -- -- -- -- -- -- --
2019-06-10 20:00:00 -- -- -- -- -- -- -- -- --
2019-06-10 19:00:00 -- -- -- -- -- -- -- -- --
2019-06-10 18:00:00 -- -- -- -- -- -- -- -- --
2019-06-10 17:00:00 -- -- -- -- -- -- -- -- --
2019-06-10 16:00:00 -- -- -- -- -- -- -- -- --
2019-06-10 15:00:00 -- -- -- -- -- -- -- -- --
2019-06-10 14:00:00 -- -- -- -- -- -- -- -- --
2019-06-10 13:00:00 -- -- -- -- -- -- -- -- --
2019-06-10 12:00:00 -- -- -- -- -- -- -- -- --
2019-06-10 11:00:00 -- -- -- -- -- -- -- -- --
2019-06-10 10:00:00 -- -- -- -- -- -- -- -- --
2019-06-10 09:00:00 -- -- -- -- -- -- -- -- --
2019-06-10 08:00:00 -- -- -- -- -- -- -- -- --
2019-06-10 07:00:00 -- -- -- -- -- -- -- -- --
2019-06-10 06:00:00 -- -- -- -- -- -- -- -- --
2019-06-10 05:00:00 -- -- -- -- -- -- -- -- --
2019-06-10 04:00:00 -- -- -- -- -- -- -- -- --
2019-06-10 03:00:00 -- -- -- -- -- -- -- -- --
2019-06-10 02:00:00 -- -- -- -- -- -- -- -- --
2019-06-10 01:00:00 -- -- -- -- -- -- -- -- --
2019-06-10 00:00:00 -- -- -- -- -- -- -- -- --
2019-06-09 23:00:00 -- -- -- -- -- -- -- -- --
2019-06-09 22:00:00 -- -- -- -- -- -- -- -- --
2019-06-09 21:00:00 -- -- -- -- -- -- -- -- --
2019-06-09 20:00:00 -- -- -- -- -- -- -- -- --
2019-06-09 19:00:00 -- -- -- -- -- -- -- -- --
2019-06-09 18:00:00 -- -- -- -- -- -- -- -- --
2019-06-09 17:00:00 -- -- -- -- -- -- -- -- --
2019-06-09 16:00:00 -- -- -- -- -- -- -- -- --
2019-06-09 15:00:00 -- -- -- -- -- -- -- -- --
2019-06-09 14:00:00 -- -- -- -- -- -- -- -- --
2019-06-09 13:00:00 -- -- -- -- -- -- -- -- --
2019-06-09 12:00:00 -- -- -- -- -- -- -- -- --
2019-06-09 11:00:00 -- -- -- -- -- -- -- -- --
2019-06-09 10:00:00 -- -- -- -- -- -- -- -- --
2019-06-09 09:00:00 -- -- -- -- -- -- -- -- --
2019-06-09 08:00:00 -- -- -- -- -- -- -- -- --
2019-06-09 07:00:00 -- -- -- -- -- -- -- -- --
2019-06-09 06:00:00 -- -- -- -- -- -- -- -- --
2019-06-09 05:00:00 -- -- -- -- -- -- -- -- --
2019-06-09 04:00:00 -- -- -- -- -- -- -- -- --
2019-06-09 03:00:00 -- -- -- -- -- -- -- -- --
2019-06-09 02:00:00 -- -- -- -- -- -- -- -- --
2019-06-09 01:00:00 -- -- -- -- -- -- -- -- --
2019-06-09 00:00:00 -- -- -- -- -- -- -- -- --
2019-06-08 23:00:00 -- -- -- -- -- -- -- -- --
2019-06-08 22:00:00 -- -- -- -- -- -- -- -- --
2019-06-08 21:00:00 -- -- -- -- -- -- -- -- --
2019-06-08 20:00:00 -- -- -- -- -- -- -- -- --
2019-06-08 19:00:00 -- -- -- -- -- -- -- -- --
2019-06-08 18:00:00 -- -- -- -- -- -- -- -- --
2019-06-08 17:00:00 -- -- -- -- -- -- -- -- --
2019-06-08 16:00:00 -- -- -- -- -- -- -- -- --
2019-06-08 15:00:00 -- -- -- -- -- -- -- -- --
2019-06-08 14:00:00 -- -- -- -- -- -- -- -- --
2019-06-08 13:00:00 -- -- -- -- -- -- -- -- --
2019-06-08 12:00:00 -- -- -- -- -- -- -- -- --
2019-06-08 11:00:00 20.6 3 Este 10 Nordeste 0 989 -0.6 36
2019-06-08 10:00:00 17.7 3 Sudeste 8 Oeste 0 989.5 0.3 41
2019-06-08 09:00:00 14 3 Oeste 7 Oeste 0 989.9 1.2 52
2019-06-08 08:00:00 11.6 5 Nordeste 9 Nordeste 0 989.6 1.2 59
2019-06-08 07:00:00 9.6 5 Nordeste 8 Norte 0 989.2 1.4 65
2019-06-08 06:00:00 9.9 4 Nordeste 9 Norte 0 988.7 1.5 62
2019-06-08 05:00:00 10.9 3 Nordeste 10 Nordeste 0 988.4 1.5 58
2019-06-08 04:00:00 11.7 7 Nordeste 12 Nordeste 0 987.8 1.2 55
2019-06-08 03:00:00 13.1 3 Nordeste 7 Nordeste 0 987.2 1.3 50
2019-06-08 02:00:00 15 3 Sudoeste 10 Sur 0 986.9 1.9 51
2019-06-08 01:00:00 17.3 6 Sur 21 Sur 0 986.6 2.6 64
2019-06-08 00:00:00 18.2 8 Sur 13 Sur 0 985.9 2.8 55
2019-06-07 23:00:00 19.1 4 Sudoeste 14 Sudoeste 0 985 2.6 23
2019-06-07 22:00:00 21.1 5 Sur 15 Oeste 0 984 2.4 18
2019-06-07 21:00:00 23.8 9 Oeste 19 Oeste 0 983.1 2.1 14
2019-06-07 20:00:00 25 9 Oeste 34 Oeste 0 982.4 1.8 15
2019-06-07 19:00:00 25.4 14 Oeste 38 Oeste 0 981.6 1.4 16
2019-06-07 18:00:00 25.8 17 Oeste 39 Oeste 0 981 1.6 15
2019-06-07 17:00:00 25.4 19 Oeste 42 Noroeste 0 980.6 1.4 23
2019-06-07 16:00:00 25.2 18 Oeste 39 Noroeste 0 980.2 1.7 25
2019-06-07 15:00:00 25 18 Oeste 43 Noroeste 0 979.4 1.3 31
2019-06-07 14:00:00 24 22 Oeste 42 Oeste 0 979.2 0.9 34
2019-06-07 13:00:00 24.5 20 Oeste 41 Oeste 0 978.5 0.1 35
2019-06-07 12:00:00 23.1 6 Sudoeste 14 Oeste 0 978.1 -0.2 47
2019-06-07 11:00:00 21 5 Sudoeste 13 Sudoeste 0 978.3 0.5 55
2019-06-07 10:00:00 19.5 4 Sudoeste 9 Sur 0 978.4 0.5 61
2019-06-07 09:00:00 17 3 Sur 7 Oeste 0 978.3 0.4 62
2019-06-07 08:00:00 14.2 2 Oeste 7 Sur 0 977.8 -0.4 72
2019-06-07 07:00:00 12.9 3 Norte 9 Este 0 977.9 -0.3 75
2019-06-07 06:00:00 13.3 3 Este 13 Nordeste 0 977.9 -0.3 74
2019-06-07 05:00:00 13.2 6 Nordeste 13 Nordeste 0 978.2 -0.4 74
2019-06-07 04:00:00 13.4 6 Nordeste 13 Nordeste 0 978.2 -0.8 73
2019-06-07 03:00:00 13.3 8 Norte 15 Nordeste 0 978.2 -1 76
2019-06-07 02:00:00 13.7 9 Nordeste 14 Nordeste 0 978.6 -0.9 77
2019-06-07 01:00:00 14.3 5 Nordeste 10 Nordeste 0 979 0 77
2019-06-07 00:00:00 15.5 3 Este 16 Sur 0 979.2 0.2 78
2019-06-06 23:00:00 16.2 9 Sur 16 Sur 0 979.5 0.5 73
2019-06-06 22:00:00 17.1 9 Sudeste 21 Sur 0 979 0.4 69
2019-06-06 21:00:00 18.5 11 Sudeste 26 Sur 0 979 -0.1 60
2019-06-06 20:00:00 20.1 13 Sur 29 Sur 0 979 -0.4 53
2019-06-06 19:00:00 21.9 14 Sur 28 Sur 0 978.6 -1.2 42
2019-06-06 18:00:00 21.5 13 Sur 33 Sur 0 979.1 -1 46
2019-06-06 17:00:00 22.7 18 Sur 36 Sur 0 979.4 -1 42
2019-06-06 16:00:00 23.6 14 Sur 35 Sudoeste 0 979.8 -1 39
2019-06-06 15:00:00 22.6 16 Sur 33 Sur 0 980.1 -0.9 46
2019-06-06 14:00:00 22.9 16 Sur 35 Sudoeste 0 980.4 -1 46
2019-06-06 13:00:00 20.9 10 Sur 22 Sur 0 980.8 -0.8 51
2019-06-06 12:00:00 21.3 7 Sur 23 Sur 0 981 -0.7 47
2019-06-06 11:00:00 19.2 5 Sur 12 Sudeste 0 981.4 -0.2 54
2019-06-06 10:00:00 16.8 3 Norte 9 Norte 0 981.6 0.4 45
2019-06-06 09:00:00 13.4 6 Nordeste 12 Norte 0 981.7 1 62
2019-06-06 08:00:00 10.6 6 Nordeste 10 Norte 0 981.6 1.4 74
2019-06-06 07:00:00 9.1 3 Norte 7 Nordeste 0 981.2 1.2 80
2019-06-06 06:00:00 9.8 4 Este 9 Nordeste 0 980.7 1.1 78
2019-06-06 05:00:00 10.8 5 Nordeste 8 Nordeste 0 980.2 0.9 73
2019-06-06 04:00:00 11.7 3 Oeste 9 Noroeste 0 980 0.9 62
2019-06-06 03:00:00 13.3 5 Oeste 9 Oeste 0 979.6 1.3 57
2019-06-06 02:00:00 14.6 5 Sudoeste 12 Oeste 0 979.3 1.9 52
2019-06-06 01:00:00 16.1 5 Sur 23 Sur 0 979.1 2.5 56
2019-06-06 00:00:00 16.8 8 Sur 23 Sudoeste 0 978.3 2.6 45
2019-06-05 23:00:00 17.4 7 Sudoeste 19 Sudoeste 0 977.4 2.8 45
2019-06-05 22:00:00 18.2 10 Sudoeste 24 Oeste 0 976.6 2.6 44
2019-06-05 21:00:00 19.7 15 Oeste 36 Oeste 0 975.7 2.1 40
2019-06-05 20:00:00 21 11 Oeste 35 Noroeste 0 974.6 0.5 35
2019-06-05 19:00:00 21.4 13 Oeste 35 Oeste 0 974 0.1 35
2019-06-05 18:00:00 20.6 7 Oeste 27 Oeste 0 973.6 0.4 44
2019-06-05 17:00:00 19.5 11 Oeste 33 Noroeste 0 974.1 1.4 48
2019-06-05 16:00:00 20 17 Oeste 37 Noroeste 0 973.9 1.7 54
2019-06-05 15:00:00 21.8 21 Oeste 38 Oeste 0 973.2 0.2 54
2019-06-05 14:00:00 20.4 16 Oeste 36 Oeste 0 972.7 0.2 60
2019-06-05 13:00:00 25 6 Sur 26 Sudoeste 0 972.2 -0.8 40
2019-06-05 12:00:00 23.7 14 Sur 30 Sur 0 973 -0.3 39
2019-06-05 11:00:00 21.3 6 Sudoeste 14 Sur 0 972.5 -1 52
2019-06-05 10:00:00 18.7 4 Noroeste 8 Oeste 0 973 -0.9 48
2019-06-05 09:00:00 15.9 3 Norte 7 Oeste 0 973.3 -0.7 56
2019-06-05 08:00:00 13 5 Nordeste 9 Norte 0 973.5 -0.9 66
2019-06-05 07:00:00 11 3 Nordeste 6 Nordeste 0 973.9 -1.2 75
2019-06-05 06:00:00 11.6 3 Nordeste 5 Oeste 0 974 -1.8 75
2019-06-05 05:00:00 12.2 0 Calma 8 Oeste 0 974.4 -1.6 74
2019-06-05 04:00:00 13.2 3 Nordeste 12 Nordeste 0 975.1 -1.4 64
2019-06-05 03:00:00 14.1 7 Nordeste 12 Nordeste 0 975.8 -0.8 62
2019-06-05 02:00:00 15.1 5 Nordeste 8 Norte 0 976 -0.6 62
2019-06-05 01:00:00 16.5 5 Nordeste 9 Oeste 0 976.5 0.6 59
2019-06-05 00:00:00 18.9 3 Este 8 Sur 0 976.6 0.7 52
2019-06-04 23:00:00 20.4 3 Sudeste 13 Sur 0 976.6 0.4 48
2019-06-04 22:00:00 21.7 6 Sudeste 21 Sur 0 975.9 -0.2 40
2019-06-04 21:00:00 23 11 Sur 28 Sudoeste 0 975.9 -0.4 34
2019-06-04 20:00:00 24.9 12 Sur 29 Sudoeste 0 976.2 -0.4 27
2019-06-04 19:00:00 26.5 13 Sur 32 Sur 0 976.1 -1 22
2019-06-04 18:00:00 27.5 15 Sur 33 Sudoeste 0 976.3 -1.2 22
2019-06-04 17:00:00 28 14 Sur 34 Sudeste 0 976.6 -1.6 26
2019-06-04 16:00:00 28.4 14 Sur 30 Sur 0 977.1 -1.8 24
2019-06-04 15:00:00 28.2 13 Sur 31 Sudeste 0 977.5 -1.7 24
2019-06-04 14:00:00 27.6 15 Sur 28 Sur 0 978.2 -1.3 27
2019-06-04 13:00:00 26.6 10 Sur 25 Sudoeste 0 978.9 -1 29
2019-06-04 12:00:00 25.3 9 Sur 19 Sur 0 979.2 -0.7 32
2019-06-04 11:00:00 22.5 4 Sudoeste 8 Sur 0 979.5 -0.5 39
2019-06-04 10:00:00 19.1 3 Nordeste 9 Nordeste 0 979.9 -0.2 47
2019-06-04 09:00:00 16 5 Nordeste 8 Nordeste 0 979.9 -0.2 56
2019-06-04 08:00:00 13.2 2 Norte 6 Nordeste 0 980 -0.5 69
2019-06-04 07:00:00 11.8 2 Noroeste 5 Nordeste 0 980.1 -0.8 70
2019-06-04 06:00:00 12.6 0 Calma 6 Norte 0 980.1 -1.3 70
2019-06-04 05:00:00 13 4 Nordeste 7 Nordeste 0 980.5 -1.4 65
2019-06-04 04:00:00 13.6 5 Nordeste 8 Nordeste 0 980.9 -1.3 63
2019-06-04 03:00:00 14.5 5 Nordeste 9 Nordeste 0 981.4 -0.9 58
2019-06-04 02:00:00 15.7 7 Nordeste 12 Nordeste 0 981.9 -0.5 51
2019-06-04 01:00:00 17.4 4 Norte 7 Noroeste 0 982.2 0.4 53
2019-06-04 00:00:00 18.9 2 Sudeste 6 Sur 0 982.3 0.7 49
2019-06-03 23:00:00 20.2 4 Sur 14 Sur 0 982.4 0.6 44
2019-06-03 22:00:00 21.4 10 Sur 22 Sur 0 981.8 -0.2 36
2019-06-03 21:00:00 23.5 10 Sur 21 Sudeste 0 981.6 -0.3 32
2019-06-03 20:00:00 25.5 11 Sur 23 Sur 0 981.8 -0.4 27
2019-06-03 19:00:00 27.3 12 Sur 28 Sudeste 0 982 -0.2 23
2019-06-03 18:00:00 27.9 13 Sur 26 Sudoeste 0 981.9 -0.6 21
2019-06-03 17:00:00 28.6 11 Sur 29 Sudoeste 0 982.2 -0.8 18
2019-06-03 16:00:00 29.6 11 Sur 31 Sur 0 982.2 -1.1 19
2019-06-03 15:00:00 29.2 14 Sur 30 Sudoeste 0 982.5 -1.1 22
2019-06-03 14:00:00 28.4 14 Sur 31 Sudoeste 0 983 -0.8 22
2019-06-03 13:00:00 27.9 10 Sur 28 Sudoeste 0 983.3 -0.7 25
2019-06-03 12:00:00 26.5 4 Este 10 Norte 0 983.6 -0.7 27
2019-06-03 11:00:00 22.2 4 Sudoeste 8 Oeste 0 983.8 -0.7 39
2019-06-03 10:00:00 18.5 3 Noroeste 6 Oeste 0 984 -0.2 49
2019-06-03 09:00:00 15.7 2 Noroeste 8 Nordeste 0 984.3 0.1 58
2019-06-03 08:00:00 13.7 3 Nordeste 8 Oeste 0 984.5 0.2 65
2019-06-03 07:00:00 11.3 3 Norte 9 Este 0 984.2 -0.4 74
2019-06-03 06:00:00 11.8 3 Nordeste 8 Nordeste 0 984.2 -0.6 72
2019-06-03 05:00:00 12.6 2 Norte 6 Oeste 0 984.3 -0.6 66
2019-06-03 04:00:00 13.6 0 Calma 10 Nordeste 0 984.6 -0.3 64
2019-06-03 03:00:00 14.5 3 Norte 10 Norte 0 984.8 -0.2 59
2019-06-03 02:00:00 15.8 6 Nordeste 10 Nordeste 0 984.9 0.3 51
2019-06-03 01:00:00 17.3 2 Noroeste 5 Oeste 0 984.9 0.5 44
2019-06-03 00:00:00 18.4 3 Oeste 12 Sur 0 985 1.5 41
2019-06-02 23:00:00 20.1 7 Sur 18 Sudeste 0 984.6 1.6 34
2019-06-02 22:00:00 21.4 7 Sur 19 Sudeste 0 984.4 1.4 32
2019-06-02 21:00:00 23.4 8 Sur 26 Sur 0 983.5 0.6 30
2019-06-02 20:00:00 24.5 14 Sur 31 Sur 0 983 0.1 28
2019-06-02 19:00:00 26.9 16 Sur 35 Sur 0 983 -0.3 25
2019-06-02 18:00:00 27.7 17 Sur 33 Sur 0 982.9 -0.7 24
2019-06-02 17:00:00 28.5 17 Sur 37 Sur 0 982.9 -1.2 23
2019-06-02 16:00:00 28.6 15 Sur 32 Sudeste 0 983.3 -1.3 24
2019-06-02 15:00:00 28.8 16 Sur 33 Sur 0 983.6 -1.5 26
2019-06-02 14:00:00 28.3 14 Sur 28 Sur 0 984.1 -1.3 26
2019-06-02 13:00:00 27.6 12 Sur 30 Sudoeste 0 984.6 -1.1 30
2019-06-02 12:00:00 25.3 8 Sur 15 Sudoeste 0 985.1 -0.8 32
2019-06-02 11:00:00 22.6 3 Sur 7 Sur 0 985.4 -0.5 39
2019-06-02 10:00:00 18.6 3 Oeste 6 Oeste 0 985.7 -0.1 51
2019-06-02 09:00:00 16.3 2 Nordeste 9 Nordeste 0 985.9 0.1 58
2019-06-02 08:00:00 13.8 4 Nordeste 8 Nordeste 0 985.9 0 68
2019-06-02 07:00:00 11.8 2 Nordeste 6 Nordeste 0 985.8 -0.4 75
2019-06-02 06:00:00 12.3 3 Oeste 9 Nordeste 0 985.8 -0.9 73
2019-06-02 05:00:00 13.1 5 Nordeste 7 Nordeste 0 985.9 -1 70
2019-06-02 04:00:00 14.4 2 Noroeste 7 Norte 0 986.2 -0.7 64
2019-06-02 03:00:00 15 3 Nordeste 8 Nordeste 0 986.7 -0.4 61
2019-06-02 02:00:00 16 4 Nordeste 8 Norte 0 986.9 0 57
2019-06-02 01:00:00 17.5 2 Noroeste 4 Nordeste 0 986.9 0.9 46
2019-06-02 00:00:00 18.4 2 Oeste 9 Sur 0 987.1 1.5 42
2019-06-01 23:00:00 19.9 4 Sudoeste 17 Sur 0 986.9 1.8 35
2019-06-01 22:00:00 21.3 9 Sur 21 Sur 0 986 1.1 32
2019-06-01 21:00:00 23.4 10 Sur 21 Sur 0 985.6 0.4 29
2019-06-01 20:00:00 25.6 11 Sur 33 Sudeste 0 985.1 -0.1 26
2019-06-01 19:00:00 26.7 15 Sur 32 Sudeste 0 984.9 -0.9 26
2019-06-01 18:00:00 27.9 14 Sur 32 Sur 0 985.2 -1 28
2019-06-01 17:00:00 28.7 14 Sur 29 Sur 0 985.2 -1.8 27
2019-06-01 16:00:00 29 14 Sur 24 Sur 0 985.8 -1.7 28
2019-06-01 15:00:00 29.5 12 Sur 21 Sur 0 986.2 -1.8 22
2019-06-01 14:00:00 28.5 7 Sur 15 Sudoeste 0 987 -1.3 24
2019-06-01 13:00:00 27.6 6 Sur 17 Sur 0 987.5 -1.1 29
2019-06-01 12:00:00 25.7 6 Sur 11 Sudoeste 0 988 -0.8 33
2019-06-01 11:00:00 22.4 3 Sudoeste 7 Oeste 0 988.3 -0.4 48
2019-06-01 10:00:00 19.5 3 Este 6 Noroeste 0 988.6 0.1 54
2019-06-01 09:00:00 15.6 3 Oeste 8 Norte 0 988.8 0.3 66
2019-06-01 08:00:00 13.7 4 Norte 8 Nordeste 0 988.7 0.2 74
2019-06-01 07:00:00 11.8 4 Nordeste 8 Nordeste 0 988.5 0 82
2019-06-01 06:00:00 12.1 3 Norte 8 Norte 0 988.5 -0.3 80
2019-06-01 05:00:00 12.8 4 Nordeste 6 Nordeste 0 988.5 -0.6 78
2019-06-01 04:00:00 13.6 3 Nordeste 9 Nordeste 0 988.5 -0.7 74
2019-06-01 03:00:00 14.5 5 Nordeste 10 Norte 0 988.8 -0.6 71
2019-06-01 02:00:00 15.2 2 Norte 8 Nordeste 0 989.1 -0.1 67
2019-06-01 01:00:00 16.4 4 Nordeste 9 Nordeste 0 989.2 0.7 59
2019-06-01 00:00:00 17.9 0 Calma 8 Sudoeste 0 989.4 1.3 51
2019-05-31 23:00:00 19.3 5 Sudoeste 18 Sur 0 989.2 1.5 46
2019-05-31 22:00:00 20.5 8 Sur 22 Sur 0 988.5 0.8 43
2019-05-31 21:00:00 22.5 13 Sur 24 Sudeste 0 988.1 0.4 38
2019-05-31 20:00:00 24.7 10 Sur 19 Sudoeste 0 987.7 -0.4 33
2019-05-31 19:00:00 25.9 13 Sur 22 Sur 0 987.7 -0.7 30
2019-05-31 18:00:00 26.8 10 Sur 22 Sudeste 0 987.7 -0.9 30
2019-05-31 17:00:00 27.4 10 Sur 24 Sur 0 988.1 -1 26
2019-05-31 16:00:00 27.1 14 Sudeste 30 Sur 0 988.4 -1.3 26
2019-05-31 15:00:00 26.8 13 Sur 25 Sudeste 0 988.6 -1.6 26
2019-05-31 14:00:00 26.5 10 Sur 21 Sudeste 0 989.1 -1.6 29
2019-05-31 13:00:00 25.1 6 Sur 18 Sur 0 989.7 -1.3 32
2019-05-31 12:00:00 23.5 5 Oeste 10 Oeste 0 990.2 -1 35
2019-05-31 11:00:00 20.8 3 Nordeste 10 Nordeste 0 990.7 -0.4 45
2019-05-31 10:00:00 17.5 4 Norte 8 Nordeste 0 991 0.1 60
2019-05-31 09:00:00 14.8 3 Nordeste 7 Norte 0 991.2 0.5 67
2019-05-31 08:00:00 12.3 4 Norte 7 Norte 0 991.1 0.2 76
2019-05-31 07:00:00 10.3 4 Nordeste 6 Nordeste 0 990.9 -0.1 88
2019-05-31 06:00:00 10.5 3 Oeste 6 Oeste 0 990.7 -0.5 85
2019-05-31 05:00:00 11.3 2 Noroeste 6 Nordeste 0 990.9 -0.3 83
2019-05-31 04:00:00 12.2 2 Nordeste 8 Nordeste 0 991 -0.3 79
2019-05-31 03:00:00 13.1 3 Nordeste 8 Nordeste 0 991.2 0 76
2019-05-31 02:00:00 14.2 2 Nordeste 6 Oeste 0 991.2 0.1 73
2019-05-31 01:00:00 15.4 3 Oeste 5 Oeste 0 991.3 1.1 68
2019-05-31 00:00:00 16.6 2 Sudoeste 12 Sur 0 991.2 1.9 65
2019-05-30 23:00:00 18 8 Sur 19 Sur 0 991.1 2.5 60
2019-05-30 22:00:00 18.9 10 Sur 24 Sur 0 990.2 1.9 59
2019-05-30 21:00:00 20.4 10 Sur 28 Sudeste 0 989.3 0.8 51
2019-05-30 20:00:00 22.4 14 Sur 32 Sudoeste 0 988.6 -0.1 39
2019-05-30 19:00:00 23.5 15 Sur 31 Sur 0 988.3 -0.4 40
2019-05-30 18:00:00 23.8 18 Sur 30 Sur 0 988.5 -0.5 42
2019-05-30 17:00:00 24.3 17 Sur 31 Sudoeste 0 988.7 -0.9 42
2019-05-30 16:00:00 25.8 13 Sur 28 Sudoeste 0 988.7 -1.2 33
2019-05-30 15:00:00 24.9 6 Sur 18 Sudoeste 0 989 -1.5 34
2019-05-30 14:00:00 24 6 Sudeste 15 Sur 0 989.6 -1.1 36
2019-05-30 13:00:00 22.3 4 Sudeste 13 Sur 0 989.9 -1 39
2019-05-30 12:00:00 20.5 5 Sudoeste 12 Sudoeste 0 990.5 -0.5 46
2019-05-30 11:00:00 18 7 Nordeste 15 Nordeste 0 990.7 0.1 54
2019-05-30 10:00:00 15.6 4 Nordeste 10 Nordeste 0 990.9 0.6 64
2019-05-30 09:00:00 12.6 6 Nordeste 10 Nordeste 0 991 1.1 73
2019-05-30 08:00:00 10.5 4 Nordeste 8 Norte 0 990.6 1 78
2019-05-30 07:00:00 9.2 3 Nordeste 7 Nordeste 0 990.3 0.5 86
2019-05-30 06:00:00 9.3 4 Nordeste 8 Nordeste 0 989.9 0.1 86
2019-05-30 05:00:00 9.9 4 Nordeste 7 Norte 0 989.6 -0.4 85
2019-05-30 04:00:00 10.5 5 Nordeste 12 Nordeste 0 989.8 -0.2 82
2019-05-30 03:00:00 11.3 7 Nordeste 14 Nordeste 0 989.8 0.2 82
2019-05-30 02:00:00 12.7 6 Nordeste 8 Este 0 990 1.1 78
2019-05-30 01:00:00 13.5 0 Calma 9 Oeste 0 990 2.2 76
2019-05-30 00:00:00 14.4 3 Sudoeste 6 Sudoeste 0 989.6 2.9 76
2019-05-29 23:00:00 15.4 6 Sur 21 Sur 0 988.9 3.5 73
2019-05-29 22:00:00 16.8 10 Sur 23 Sur 0 987.8 3 67
2019-05-29 21:00:00 18.6 12 Sur 32 Sudeste 0 986.7 2.2 58
2019-05-29 20:00:00 20.3 15 Sur 34 Sudeste 0 985.4 1.2 51
2019-05-29 19:00:00 21.7 14 Sur 31 Sudeste 0 984.8 0.4 42
2019-05-29 18:00:00 23.5 14 Sur 36 Sudoeste 0 984.5 -0.3 35
2019-05-29 17:00:00 24.4 6 Sur 29 Sudeste 0 984.2 -1 24
2019-05-29 16:00:00 23.8 6 Norte 23 Sudoeste 0 984.4 -1.1 25
2019-05-29 15:00:00 23.1 9 Oeste 26 Oeste 0 984.8 -0.7 28
2019-05-29 14:00:00 21.5 5 Sur 18 Oeste 0 985.2 -0.6 34
2019-05-29 13:00:00 20.4 6 Oeste 21 Sudoeste 0 985.5 -0.5 34
2019-05-29 12:00:00 19.1 4 Oeste 10 Oeste 0 985.5 -0.1 39
2019-05-29 11:00:00 17.8 4 Nordeste 11 Nordeste 0 985.8 0.4 43
2019-05-29 10:00:00 15.5 3 Nordeste 12 Nordeste 0 986 1.1 50
2019-05-29 09:00:00 14.3 4 Nordeste 10 Oeste 0 985.6 1.2 58
2019-05-29 08:00:00 11.7 3 Norte 11 Noroeste 0 985.4 1.1 67
2019-05-29 07:00:00 10.7 4 Norte 9 Nordeste 0 984.9 0.9 70
2019-05-29 06:00:00 10.9 4 Noroeste 12 Noroeste 0 984.4 0.8 69
2019-05-29 05:00:00 11.3 6 Oeste 14 Noroeste 0 984.3 0.8 68
2019-05-29 04:00:00 11.2 3 Noroeste 8 Oeste 0 984 0.9 85
2019-05-29 03:00:00 12.1 4 Oeste 7 Oeste 0 983.6 0.9 86
2019-05-29 02:00:00 13.2 3 Oeste 8 Oeste 0 983.5 1 83
2019-05-29 01:00:00 14.4 3 Sur 9 Sur 0 983.1 1.4 78
2019-05-29 00:00:00 15.1 6 Sur 13 Sur 0 982.7 1.9 75
2019-05-28 23:00:00 15.4 8 Sur 21 Sur 0 982.5 2.5 73
2019-05-28 22:00:00 15.6 10 Sur 19 Sur 0 981.7 2.7 71
2019-05-28 21:00:00 16.3 10 Sur 28 Sur 0 980.8 2 69
2019-05-28 20:00:00 17.1 13 Sur 33 Sudeste 0 980 1.5 68
2019-05-28 19:00:00 17.8 19 Sur 36 Sudeste 0 979 0.4 67
2019-05-28 18:00:00 19.3 17 Sur 36 Sur 0 978.8 0 65
2019-05-28 17:00:00 20.1 16 Sur 35 Sur 0 978.5 -0.8 61
2019-05-28 16:00:00 22.8 10 Sur 20 Sudoeste 0 978.6 -0.8 36
2019-05-28 15:00:00 21.4 10 Oeste 27 Noroeste 0 978.8 -0.7 42
2019-05-28 14:00:00 21.7 10 Oeste 26 Oeste 0 979.3 -0.2 43
2019-05-28 13:00:00 20.2 8 Oeste 24 Noroeste 0 979.4 -0.5 43
2019-05-28 12:00:00 20.5 6 Oeste 22 Oeste 0 979.5 0.1 48
2019-05-28 11:00:00 17.8 11 Oeste 22 Oeste 0 979.5 0.3 52
2019-05-28 10:00:00 15.5 8 Oeste 22 Oeste 0 979.9 1.4 60
2019-05-28 09:00:00 14.1 13 Noroeste 27 Oeste 0 979.4 1.1 64
2019-05-28 08:00:00 13.4 15 Oeste 27 Noroeste 0 979.2 1.2 66
2019-05-28 07:00:00 13.3 12 Oeste 21 Oeste 0 978.5 0.4 67
2019-05-28 06:00:00 14.3 13 Oeste 25 Noroeste 0 978.3 -0.1 69
2019-05-28 05:00:00 13.9 2 Sudoeste 8 Oeste 0 978 -0.6 87
2019-05-28 04:00:00 -- -- -- -- -- -- -- -- --
2019-05-28 03:00:00 -- -- -- -- -- -- -- -- --
2019-05-28 02:00:00 -- -- -- -- -- -- -- -- --
2019-05-28 01:00:00 -- -- -- -- -- -- -- -- --
2019-05-28 00:00:00 -- -- -- -- -- -- -- -- --